Flight Track Log - Related Links

Times and Time Zones

All times are in EDT time to prevent confusion due to time zone crossing. See the SWA34 flight status page for this flight to view local times or setup timezone preferences in your user account.

Time Position Orientation Groundspeed Altitude Reporting Facility
EDT Latitude Longitude Course Direction KTS MPH feet Rate Location/Type
Wed 10:26:55 AM 36.8511 -76.2433 213° Southwest 190 219 3,100  Level Washington Center
Wed 10:27:56 AM 36.8133 -76.3003 230° Southwest 248 285 6,200 2,846 Climbing Washington Center
Wed 10:29:31 AM 36.7936 -76.4347 260° West 301 346 10,500 2,787 Climbing Washington Center
Wed 10:30:31 AM 36.7783 -76.5411 260° West 312 359 13,400 3,050 Climbing Washington Center
Wed 10:31:31 AM 36.7647 -76.6550 262° West 324 373 16,600 2,900 Climbing Washington Center
Wed 10:32:31 AM 36.7469 -76.7714 259° West 335 386 19,200 2,550 Climbing Washington Center
Wed 10:33:31 AM 36.7311 -76.8981 261° West 354 407 21,700 1,884 Climbing Washington Center
Wed 10:34:32 AM 36.7067 -77.0247 257° West 373 429 23,000 1,800 Climbing Washington Center
Wed 10:35:31 AM 36.6508 -77.1453 240° Southwest 385 443 25,300 1,513 Climbing Washington Center
Wed 10:36:31 AM 36.5950 -77.2658 240° Southwest 396 456 26,000 350 Climbing Washington Center
Wed 10:37:31 AM 36.5369 -77.3939 241° Southwest 415 478 26,000 250 Level Washington Center
Wed 10:38:31 AM 36.4786 -77.5189 240° Southwest 415 478 26,500 1,300 Climbing Washington Center
Wed 10:39:31 AM 36.4158 -77.6492 239° Southwest 415 478 28,600 2,231 Climbing Washington Center
Wed 10:40:32 AM 36.3533 -77.7711 238° Southwest 415 478 31,000 2,300 Climbing Washington Center
Wed 10:41:31 AM 36.2947 -77.8881 238° Southwest 415 478 33,200 1,815 Climbing Washington Center
Wed 10:42:31 AM 36.2300 -77.9969 234° Southwest 409 471 34,600 1,400 Climbing Washington Center
Wed 10:43:31 AM 36.1367 -78.0764 215° Southwest 396 456 36,000 700 Climbing Washington Center
Wed 10:44:31 AM 36.0431 -78.1583 215° Southwest 413 475 36,000  Level Washington Center
Wed 10:45:31 AM 35.9453 -78.2397 214° Southwest 423 487 36,000  Level Washington Center
Wed 10:46:31 AM 35.8453 -78.3236 214° Southwest 428 493 36,000  Level Washington Center
Wed 10:47:31 AM 35.7517 -78.4047 215° Southwest 428 493 36,000  Level Washington Center
Wed 10:48:31 AM 35.6558 -78.4858 215° Southwest 428 493 36,000  Level Washington Center
Wed 10:49:31 AM 35.5644 -78.5564 212° Southwest 433 498 36,000  Level Washington Center
Wed 10:50:31 AM 35.4619 -78.6469 216° Southwest 426 490 36,000  Level Washington Center
Wed 10:51:31 AM 35.3744 -78.7175 213° Southwest 426 490 36,000  Level Washington Center
Wed 10:52:32 AM 35.2783 -78.8003 215° Southwest 431 496 36,000  Level Washington Center
Wed 10:53:31 AM 35.1844 -78.8781 214° Southwest 426 490 36,000  Level Washington Center
Wed 10:54:31 AM 35.0906 -78.9553 214° Southwest 426 490 36,000  Level Washington Center
Wed 10:55:32 AM 34.9944 -79.0350 214° Southwest 421 484 36,000  Level Washington Center
Wed 10:57:03 AM 34.8389 -79.1619 214° Southwest 421 484 36,000  Level Jacksonville Center
Wed 10:58:03 AM 34.7433 -79.2419 215° Southwest 421 484 36,000  Level Jacksonville Center
Wed 10:59:03 AM 34.6475 -79.3192 214° Southwest 416 479 36,000  Level Jacksonville Center
Wed 11:00:03 AM 34.5494 -79.3989 214° Southwest 416 479 36,000  Level Jacksonville Center
Wed 11:01:03 AM 34.4536 -79.4756 213° Southwest 416 479 36,000  Level Jacksonville Center
Wed 11:02:03 AM 34.3556 -79.5525 213° Southwest 416 479 36,000  Level Jacksonville Center
Wed 11:03:03 AM 34.2617 -79.6339 216° Southwest 416 479 36,000  Level Jacksonville Center
Wed 11:04:03 AM 34.2142 -79.7336 240° Southwest 388 447 36,000  Level Jacksonville Center
Wed 11:05:03 AM 34.1817 -79.8578 252° West 388 447 36,000  Level Jacksonville Center
Wed 11:06:03 AM 34.1472 -79.9869 252° West 394 453 36,000  Level Jacksonville Center
Wed 11:07:03 AM 34.1125 -80.1111 251° West 400 460 36,000  Level Jacksonville Center
Wed 11:08:03 AM 34.0797 -80.2375 253° West 400 460 36,000  Level Jacksonville Center
Wed 11:09:03 AM 34.0447 -80.3614 251° West 400 460 36,000  Level Jacksonville Center
Wed 11:10:03 AM 34.0094 -80.4850 251° West 400 460 36,000  Level Jacksonville Center
Wed 11:11:03 AM 33.9744 -80.6111 252° West 400 460 36,000  Level Jacksonville Center
Wed 11:12:03 AM 33.9411 -80.7347 252° West 400 460 36,000  Level Jacksonville Center
Wed 11:13:03 AM 33.9075 -80.8556 252° West 395 455 36,000  Level Jacksonville Center
Wed 11:14:03 AM 33.8742 -80.9767 252° West 389 448 36,000  Level Jacksonville Center
Wed 11:15:03 AM 33.8342 -81.1050 249° West 389 448 36,000  Level Jacksonville Center
Wed 11:17:29 AM 33.7550 -81.3828 251° West 386 444 36,000 -262 Level Atlanta Center
Wed 11:18:29 AM 33.7219 -81.4989 251° West 386 444 35,100 -500 Descending Atlanta Center
Wed 11:19:29 AM 33.6889 -81.6147 251° West 380 437 35,000 -50 Descending Atlanta Center
Wed 11:20:29 AM 33.6536 -81.7353 251° West 380 437 35,000  Level Atlanta Center
Wed 11:21:29 AM 33.6183 -81.8561 251° West 380 437 35,000 500 Level Atlanta Center
Wed 11:22:29 AM 33.5806 -81.9742 249° West 385 443 36,000 -1,200 Climbing Atlanta Center
Wed 11:23:29 AM 33.5472 -82.0897 251° West 385 443 32,600 -2,000 Descending Atlanta Center
Wed 11:24:29 AM 33.5114 -82.2125 251° West 385 443 32,000 -750 Descending Atlanta Center
Wed 11:25:29 AM 33.4736 -82.3403 251° West 395 455 31,100 -950 Descending Atlanta Center
Wed 11:26:29 AM 33.4378 -82.4656 251° West 401 461 30,100 -1,000 Descending Atlanta Center
Wed 11:27:29 AM 33.3994 -82.5831 249° West 401 461 29,100 -950 Descending Atlanta Center
Wed 11:28:29 AM 33.3633 -82.7056 251° West 394 453 28,200 -950 Descending Atlanta Center
Wed 11:29:29 AM 33.3250 -82.8331 250° West 394 453 27,200 -1,000 Descending Atlanta Center
Wed 11:30:29 AM 33.2822 -82.9678 249° West 394 453 26,200 -1,000 Descending Atlanta Center
Wed 11:31:29 AM 33.2458 -83.0900 250° West 394 453 25,200 -1,050 Descending Atlanta Center
Wed 11:32:29 AM 33.2069 -83.2072 248° West 389 448 24,100 -1,350 Descending Atlanta Center
Wed 11:33:29 AM 33.1681 -83.3267 249° West 389 448 22,500 -2,000 Descending Atlanta Center
Wed 11:34:29 AM 33.1353 -83.4336 250° West 367 422 20,100 -2,300 Descending Atlanta Center
Wed 11:35:29 AM 33.1003 -83.5453 250° West 367 422 17,900 -2,450 Descending Atlanta Center
Wed 11:36:29 AM 33.1111 -83.6519 277° West 353 406 15,200 -2,547 Descending Atlanta Center
Wed 11:37:15 AM 33.1500 -83.7167 306° West 346 398 13,400 -1,811 Descending Atlanta TRACON
Wed 11:38:15 AM 33.2167 -83.8000 314° West 319 367 12,000 -1,150 Descending Atlanta TRACON
Wed 11:39:15 AM 33.2667 -83.8833 306° West 300 345 11,100 -1,300 Descending Atlanta TRACON
Wed 11:40:15 AM 33.3167 -83.9667 306° West 301 346 9,400 -1,450 Descending Atlanta TRACON
Wed 11:41:15 AM 33.3667 -84.0333 312° West 281 323 8,200 -1,200 Descending Atlanta TRACON
Wed 11:42:15 AM 33.4167 -84.1000 312° West 276 318 7,000 -1,250 Descending Atlanta TRACON
Wed 11:43:15 AM 33.4833 -84.1500 328° Northwest 279 321 5,700 -1,450 Descending Atlanta TRACON
Wed 11:44:15 AM 33.5500 -84.1833 337° Northwest 271 312 4,100 -1,500 Descending Atlanta TRACON
Wed 11:45:15 AM 33.6000 -84.2500 312° West 264 304 2,700 -750 Descending Atlanta TRACON
Wed 11:46:15 AM 33.6167 -84.3167 287° West 203 234 2,600 -450 Descending Atlanta TRACON
Wed 11:47:15 AM 33.6167 -84.3667 270° West 139 160 1,800 -700 Descending Atlanta TRACON
Wed 11:48:15 AM 33.6167 -84.4167 270° West 132 152 1,200 -600 Descending Atlanta TRACON
Wed 11:50:00 AM 33.6333 -84.4167 64° Northeast  Level FlightAware Approximate
Wed 11:57:00 AM 33.6367 -84.4279 64° Northeast  Level Estimated

Login

Don't have an account? Register now (free) for customized features, flight alerts, and more!